MMCU/CUU METAR and TAF weather

Enter ICAO airport designator
Station Type Date Time Source
MMCU METAR 2018/12/19 03:41 UTC NOAA

MMCU 190341Z 30006KT 10SM FEW040 08/M01 A3010 RMK 8/500


Station Type Date Time Source
MMCU Decoded METAR 2018/12/19 03:41 UTC NOAA

Chihuahua International Airport, Mexico (MMCU) 28-42N 105-58W
Dec 18, 2018 - 10:41 PM EST / 2018.12.19 0341 UTC
Wind: from the WNW (300 degrees) at 7 MPH (6 KT):0
Visibility: 10 mile(s):0
Sky conditions: mostly clear
Temperature: 46 F (8 C)
Dew Point: 30 F (-1 C)
Relative Humidity: 52%
Pressure (altimeter): 30.1 in. Hg (1019 hPa)
ob: MMCU 190341Z 30006KT 10SM FEW040 08/M01 A3010 RMK 8/500
cycle: 3

Station Type Date Time Source
MMCU TAF 2018/12/19 06:40 UTC NOAA

TAF MMCU 190533Z 1906/2006 11004KT P6SM SCT040
FM191800 30012KT P6SM SCT030 SCT090
BECMG 2003/2005 28005KT


Example: see airport list